Time;durP1;ratioP1;P1;durP2;ratioP2;P2;SDS_P1;SDS_P2;PMS_P1;PMS_P2;Temp;Humidity;BMP_temperature;BMP_pressure;BME280_temperature;BME280_humidity;BME280_pressure;Samples;Min_cycle;Max_cycle;Signal;HPM_P1;HPM_P2
2022/04/22 00:01:14;;;;;;;2.95;1.63;;;;;;;;;;5067513;28;20052;-55
2022/04/22 00:03:40;;;;;;;3.20;1.77;;;;;;;;;;5068624;28;20032;-56
2022/04/22 00:06:06;;;;;;;6.35;1.98;;;;;;;;;;5061852;28;20401;-57
2022/04/22 00:08:32;;;;;;;5.97;2.03;;;;;;;;;;5056231;28;20032;-56
2022/04/22 00:13:43;;;;;;;4.90;2.20;;;;;;;;;;5061016;28;20039;-57
2022/04/22 00:16:09;;;;;;;3.17;1.73;;;;;;;;;;5064912;28;20476;-56
2022/04/22 00:18:35;;;;;;;4.72;2.05;;;;;;;;;;5060981;28;20456;-55
2022/04/22 00:21:01;;;;;;;4.30;2.20;;;;;;;;;;5069218;28;20029;-57
2022/04/22 00:23:27;;;;;;;3.58;1.92;;;;;;;;;;5062924;28;20035;-56
2022/04/22 00:25:54;;;;;;;2.53;1.65;;;;;;;;;;5073452;28;20527;-57
2022/04/22 00:28:20;;;;;;;3.25;2.03;;;;;;;;;;5069645;28;20033;-56
2022/04/22 00:30:47;;;;;;;6.68;2.28;;;;;;;;;;5066959;28;20032;-56
2022/04/22 00:33:13;;;;;;;4.20;2.15;;;;;;;;;;5069478;28;20143;-58
2022/04/22 00:35:40;;;;;;;6.55;2.50;;;;;;;;;;5069070;28;20515;-56
2022/04/22 00:38:06;;;;;;;2.38;1.85;;;;;;;;;;5064306;28;20029;-57
2022/04/22 00:40:32;;;;;;;4.25;2.15;;;;;;;;;;5069931;28;20037;-55
2022/04/22 00:42:59;;;;;;;4.53;1.98;;;;;;;;;;5068480;28;20024;-58
2022/04/22 00:45:25;;;;;;;3.13;1.98;;;;;;;;;;5065346;28;20064;-55
2022/04/22 00:47:51;;;;;;;2.78;1.85;;;;;;;;;;5070740;28;20025;-56
2022/04/22 00:50:17;;;;;;;3.55;2.10;;;;;;;;;;5062309;28;20589;-56
2022/04/22 00:52:43;;;;;;;3.95;2.00;;;;;;;;;;5062957;28;20025;-55
2022/04/22 00:55:10;;;;;;;6.38;2.33;;;;;;;;;;5061276;28;20072;-56
2022/04/22 00:57:36;;;;;;;4.45;2.13;;;;;;;;;;5068925;28;20503;-57
2022/04/22 01:00:04;;;;;;;4.60;1.90;;;;;;;;;;5060643;28;20036;-58
2022/04/22 01:02:30;;;;;;;3.88;2.08;;;;;;;;;;5058789;28;20017;-58
2022/04/22 01:10:25;;;;;;;4.10;2.22;;;;;;;;;;5054892;28;20678;-58
2022/04/22 01:12:51;;;;;;;3.42;2.05;;;;;;;;;;5061681;28;20021;-57
2022/04/22 01:15:17;;;;;;;3.70;2.08;;;;;;;;;;5068599;28;20450;-58
2022/04/22 01:17:45;;;;;;;3.08;2.05;;;;;;;;;;5063628;28;20033;-56
2022/04/22 01:20:11;;;;;;;4.13;2.38;;;;;;;;;;5053565;28;20377;-58
2022/04/22 01:22:37;;;;;;;4.72;2.30;;;;;;;;;;5069597;28;20040;-58
2022/04/22 01:25:04;;;;;;;6.35;2.28;;;;;;;;;;5055830;28;20056;-58
2022/04/22 01:27:31;;;;;;;6.57;2.30;;;;;;;;;;5065989;28;20036;-58
2022/04/22 01:29:57;;;;;;;4.72;2.10;;;;;;;;;;5062876;28;20079;-56
2022/04/22 01:32:25;;;;;;;6.38;2.70;;;;;;;;;;5060085;28;20031;-58
2022/04/22 01:34:51;;;;;;;2.67;1.83;;;;;;;;;;5065077;28;20033;-57
2022/04/22 01:37:17;;;;;;;3.78;1.90;;;;;;;;;;5062002;28;20439;-58
2022/04/22 01:39:43;;;;;;;7.47;2.63;;;;;;;;;;5066818;28;20037;-58
2022/04/22 01:42:09;;;;;;;4.50;2.35;;;;;;;;;;5070127;28;20115;-57
2022/04/22 01:44:38;;;;;;;5.32;2.72;;;;;;;;;;5063821;28;20033;-57
2022/04/22 01:47:04;;;;;;;4.80;2.10;;;;;;;;;;5067950;28;20028;-59
2022/04/22 01:49:30;;;;;;;6.47;2.70;;;;;;;;;;5061049;28;20035;-58
2022/04/22 01:51:56;;;;;;;3.30;2.30;;;;;;;;;;5060535;28;20055;-58
2022/04/22 01:54:22;;;;;;;4.40;2.10;;;;;;;;;;5057360;28;20080;-58
2022/04/22 01:56:48;;;;;;;4.43;2.45;;;;;;;;;;5070677;28;20035;-58
2022/04/22 01:59:14;;;;;;;5.55;2.20;;;;;;;;;;5068358;28;20039;-58
2022/04/22 02:01:40;;;;;;;7.50;3.15;;;;;;;;;;5065405;28;20472;-58
2022/04/22 02:04:06;;;;;;;7.30;2.50;;;;;;;;;;5063892;28;20032;-58
2022/04/22 02:06:32;;;;;;;3.70;2.55;;;;;;;;;;5061962;28;20071;-58
2022/04/22 02:08:58;;;;;;;4.88;3.10;;;;;;;;;;5062186;28;20017;-58
2022/04/22 02:11:24;;;;;;;5.28;2.80;;;;;;;;;;5056732;28;20021;-57
2022/04/22 02:13:50;;;;;;;4.05;2.55;;;;;;;;;;5063762;28;20087;-57
2022/04/22 02:16:16;;;;;;;7.38;2.83;;;;;;;;;;5062245;28;20056;-58
2022/04/22 02:18:42;;;;;;;8.07;3.38;;;;;;;;;;5064251;28;20036;-58
2022/04/22 02:21:09;;;;;;;9.05;3.03;;;;;;;;;;5064665;28;20025;-58
2022/04/22 02:23:35;;;;;;;5.57;2.90;;;;;;;;;;5058939;28;20039;-58
2022/04/22 02:26:01;;;;;;;8.32;3.80;;;;;;;;;;5071432;28;20107;-58
2022/04/22 02:28:34;;;;;;;7.50;2.97;;;;;;;;;;5064784;28;20164;-58
2022/04/22 02:31:00;;;;;;;8.30;3.22;;;;;;;;;;5054255;28;20028;-58
2022/04/22 02:33:27;;;;;;;6.85;3.35;;;;;;;;;;5064734;28;20436;-58
2022/04/22 02:35:53;;;;;;;9.05;3.28;;;;;;;;;;5068090;28;20086;-57
2022/04/22 02:38:19;;;;;;;6.13;3.42;;;;;;;;;;5067962;28;20115;-58
2022/04/22 02:46:14;;;;;;;6.15;3.65;;;;;;;;;;5051988;28;20051;-57
2022/04/22 02:48:40;;;;;;;13.00;3.67;;;;;;;;;;5051533;28;22028;-57
2022/04/22 02:51:06;;;;;;;8.23;3.55;;;;;;;;;;5066248;28;20048;-58
2022/04/22 02:53:32;;;;;;;11.23;4.70;;;;;;;;;;5060561;28;20030;-58
2022/04/22 02:55:58;;;;;;;8.13;4.38;;;;;;;;;;5055281;28;20028;-58
2022/04/22 02:58:25;;;;;;;9.60;4.25;;;;;;;;;;5062163;28;20060;-58
2022/04/22 03:00:51;;;;;;;11.27;4.97;;;;;;;;;;5056523;28;20052;-58
2022/04/22 03:03:17;;;;;;;10.57;4.22;;;;;;;;;;5053575;28;20032;-57
2022/04/22 03:05:43;;;;;;;9.45;4.50;;;;;;;;;;5061723;28;20036;-58
2022/04/22 03:08:09;;;;;;;8.93;3.80;;;;;;;;;;5045781;28;20017;-58
2022/04/22 03:10:36;;;;;;;9.85;5.45;;;;;;;;;;5066830;28;20623;-58
2022/04/22 03:13:03;;;;;;;8.18;4.20;;;;;;;;;;5045965;28;20082;-58
2022/04/22 03:15:30;;;;;;;7.68;3.70;;;;;;;;;;5059646;28;20127;-57
2022/04/22 03:17:56;;;;;;;11.13;5.18;;;;;;;;;;5063636;28;20029;-58
2022/04/22 03:20:22;;;;;;;11.30;5.40;;;;;;;;;;5057268;28;20400;-58
2022/04/22 03:22:48;;;;;;;11.07;5.32;;;;;;;;;;5067624;28;20031;-58
2022/04/22 03:25:14;;;;;;;9.63;5.28;;;;;;;;;;5051987;28;20540;-57
2022/04/22 03:27:40;;;;;;;10.68;5.28;;;;;;;;;;5062435;28;20025;-58
2022/04/22 03:30:06;;;;;;;11.05;5.20;;;;;;;;;;5061149;28;20044;-58
2022/04/22 03:32:32;;;;;;;7.80;4.70;;;;;;;;;;5060383;28;20112;-58
2022/04/22 03:34:58;;;;;;;11.85;5.53;;;;;;;;;;5063910;28;20024;-58
2022/04/22 03:37:24;;;;;;;16.35;6.15;;;;;;;;;;5067273;28;20032;-58
2022/04/22 03:39:50;;;;;;;13.48;5.63;;;;;;;;;;5059892;28;20365;-58
2022/04/22 03:42:16;;;;;;;10.05;5.93;;;;;;;;;;5064404;28;20039;-58
2022/04/22 03:44:42;;;;;;;16.88;5.93;;;;;;;;;;5059482;28;20527;-58
2022/04/22 03:47:08;;;;;;;11.38;5.82;;;;;;;;;;5053794;28;20025;-58
2022/04/22 03:49:35;;;;;;;11.63;6.00;;;;;;;;;;5060641;28;20028;-57
2022/04/22 03:52:01;;;;;;;9.55;5.45;;;;;;;;;;5065034;28;20048;-58
2022/04/22 03:54:27;;;;;;;14.27;5.20;;;;;;;;;;5055816;28;20040;-58
2022/04/22 03:59:37;;;;;;;18.50;6.72;;;;;;;;;;5060045;28;20395;-58
2022/04/22 04:02:03;;;;;;;11.88;5.97;;;;;;;;;;5058923;28;20025;-58
2022/04/22 04:04:30;;;;;;;11.73;5.78;;;;;;;;;;5046047;28;20025;-57
2022/04/22 04:06:56;;;;;;;10.73;5.68;;;;;;;;;;5065151;28;20491;-58
2022/04/22 04:17:38;;;;;;;13.38;5.47;;;;;;;;;;5058752;28;20124;-58
2022/04/22 04:25:34;;;;;;;13.30;5.55;;;;;;;;;;5064675;28;20040;-58
2022/04/22 04:28:00;;;;;;;10.05;5.65;;;;;;;;;;5068832;28;20017;-58
2022/04/22 04:30:26;;;;;;;13.18;6.00;;;;;;;;;;5063051;28;20112;-58
2022/04/22 04:32:53;;;;;;;14.38;6.15;;;;;;;;;;5059287;28;20476;-58
2022/04/22 04:35:18;;;;;;;12.82;6.35;;;;;;;;;;5072315;28;20635;-58
2022/04/22 04:37:44;;;;;;;11.75;6.20;;;;;;;;;;5071264;28;20040;-58
2022/04/22 04:40:11;;;;;;;10.95;6.47;;;;;;;;;;5057443;28;20033;-58
2022/04/22 04:42:37;;;;;;;12.43;6.15;;;;;;;;;;5066218;28;20028;-58
2022/04/22 04:45:04;;;;;;;13.52;5.97;;;;;;;;;;5063635;28;20448;-58
2022/04/22 04:47:31;;;;;;;16.15;6.70;;;;;;;;;;5058654;28;20091;-58
2022/04/22 04:49:57;;;;;;;12.50;6.40;;;;;;;;;;5057904;28;20111;-58
2022/04/22 04:52:23;;;;;;;12.95;5.82;;;;;;;;;;5069092;28;20120;-58
2022/04/22 04:54:50;;;;;;;11.38;6.03;;;;;;;;;;5064042;28;20028;-58
2022/04/22 04:57:16;;;;;;;9.43;5.53;;;;;;;;;;5061769;28;20058;-58
2022/04/22 04:59:42;;;;;;;13.50;6.35;;;;;;;;;;5065525;28;20032;-58
2022/04/22 05:02:08;;;;;;;15.85;6.88;;;;;;;;;;5061608;28;20035;-58
2022/04/22 05:04:34;;;;;;;13.50;5.60;;;;;;;;;;5063666;28;20028;-57
2022/04/22 05:07:00;;;;;;;16.45;6.30;;;;;;;;;;5059350;28;20029;-58
2022/04/22 05:09:26;;;;;;;16.17;6.22;;;;;;;;;;5064162;28;20078;-58
2022/04/22 05:11:52;;;;;;;11.73;5.93;;;;;;;;;;5065233;28;20025;-58
2022/04/22 05:14:19;;;;;;;15.13;6.25;;;;;;;;;;5064467;28;20020;-58
2022/04/22 05:16:45;;;;;;;12.05;6.07;;;;;;;;;;5053183;28;20033;-58
2022/04/22 05:19:12;;;;;;;13.02;5.78;;;;;;;;;;5061927;28;20537;-58
2022/04/22 05:21:38;;;;;;;16.27;6.75;;;;;;;;;;5056265;28;20074;-57
2022/04/22 05:24:04;;;;;;;13.95;5.78;;;;;;;;;;5056732;28;20086;-58
2022/04/22 05:26:30;;;;;;;20.98;7.57;;;;;;;;;;5048509;28;20120;-58
2022/04/22 05:28:56;;;;;;;13.65;5.88;;;;;;;;;;5051377;28;20039;-58
2022/04/22 05:34:06;;;;;;;14.82;7.60;;;;;;;;;;5057017;28;20051;-59
2022/04/22 05:36:32;;;;;;;14.05;6.32;;;;;;;;;;5067496;28;20430;-58
2022/04/22 05:38:58;;;;;;;15.18;6.60;;;;;;;;;;5069478;28;20047;-58
2022/04/22 05:41:24;;;;;;;14.55;6.55;;;;;;;;;;5058684;28;20032;-58
2022/04/22 05:43:50;;;;;;;16.38;6.95;;;;;;;;;;5066255;28;20036;-58
2022/04/22 05:46:17;;;;;;;14.10;6.85;;;;;;;;;;5057747;28;20039;-58
2022/04/22 05:48:43;;;;;;;11.38;6.57;;;;;;;;;;5060950;28;20029;-58
2022/04/22 05:51:09;;;;;;;12.98;6.75;;;;;;;;;;5049696;28;20043;-58
2022/04/22 05:53:35;;;;;;;15.43;6.55;;;;;;;;;;5053255;28;20460;-58
2022/04/22 05:56:01;;;;;;;16.67;7.13;;;;;;;;;;5050956;28;20404;-58
2022/04/22 05:58:27;;;;;;;12.88;7.05;;;;;;;;;;5046988;28;20033;-58
2022/04/22 06:00:53;;;;;;;10.75;5.97;;;;;;;;;;5051211;28;20041;-58
2022/04/22 06:03:19;;;;;;;11.57;6.05;;;;;;;;;;5046159;28;20040;-57
2022/04/22 06:05:45;;;;;;;13.13;6.47;;;;;;;;;;5055143;28;20041;-58
2022/04/22 06:10:56;;;;;;;14.52;6.18;;;;;;;;;;5067642;28;20754;-57
2022/04/22 06:13:22;;;;;;;12.45;6.30;;;;;;;;;;5060451;28;20028;-58
2022/04/22 06:15:48;;;;;;;14.48;6.97;;;;;;;;;;5061216;28;20396;-59
2022/04/22 06:18:14;;;;;;;12.27;5.95;;;;;;;;;;5067255;28;20033;-58
2022/04/22 06:20:40;;;;;;;12.93;5.38;;;;;;;;;;5055156;28;20580;-58
2022/04/22 06:23:06;;;;;;;11.90;6.22;;;;;;;;;;5041678;28;20028;-58
2022/04/22 06:25:32;;;;;;;13.63;5.78;;;;;;;;;;5046507;28;20082;-57
2022/04/22 06:27:59;;;;;;;14.98;6.25;;;;;;;;;;5048456;28;20029;-58
2022/04/22 06:30:25;;;;;;;14.00;5.60;;;;;;;;;;5067397;28;20392;-58
2022/04/22 06:32:52;;;;;;;13.98;5.97;;;;;;;;;;5059640;28;20029;-59
2022/04/22 06:35:19;;;;;;;17.00;6.13;;;;;;;;;;5060179;28;20028;-57
2022/04/22 06:37:46;;;;;;;14.23;6.05;;;;;;;;;;5057465;28;20029;-58
2022/04/22 06:45:47;;;;;;;12.07;6.13;;;;;;;;;;5060237;28;20396;-58
2022/04/22 06:48:18;;;;;;;14.60;6.40;;;;;;;;;;5079230;28;20107;-58
2022/04/22 06:50:46;;;;;;;14.32;6.85;;;;;;;;;;5067370;28;20040;-58
2022/04/22 06:53:13;;;;;;;13.38;5.68;;;;;;;;;;5064150;28;20035;-58
2022/04/22 06:55:39;;;;;;;15.68;5.80;;;;;;;;;;5056709;28;20024;-59
2022/04/22 06:58:08;;;;;;;11.98;5.70;;;;;;;;;;5062882;28;20032;-59
2022/04/22 07:00:34;;;;;;;17.98;6.40;;;;;;;;;;5062305;28;20037;-58
2022/04/22 07:03:00;;;;;;;12.10;5.50;;;;;;;;;;5060546;28;20021;-58
2022/04/22 07:05:27;;;;;;;13.20;6.13;;;;;;;;;;5061426;28;20033;-59
2022/04/22 07:07:52;;;;;;;11.90;5.55;;;;;;;;;;5069098;28;20107;-59
2022/04/22 07:10:19;;;;;;;12.18;5.20;;;;;;;;;;5064148;28;20128;-58
2022/04/22 07:12:45;;;;;;;12.30;6.10;;;;;;;;;;5062748;28;20025;-58
2022/04/22 07:15:11;;;;;;;16.60;6.13;;;;;;;;;;5061404;28;20056;-58
2022/04/22 07:17:38;;;;;;;11.02;5.53;;;;;;;;;;5053514;28;20032;-58
2022/04/22 07:20:09;;;;;;;11.80;5.35;;;;;;;;;;5074208;28;20495;-58
2022/04/22 07:22:36;;;;;;;8.80;5.60;;;;;;;;;;5088537;28;20525;-58
2022/04/22 07:25:02;;;;;;;10.82;5.38;;;;;;;;;;5071091;28;20025;-58
2022/04/22 07:27:28;;;;;;;14.10;5.70;;;;;;;;;;5061654;28;20456;-58
2022/04/22 07:29:55;;;;;;;13.35;5.13;;;;;;;;;;5044987;28;20032;-58
2022/04/22 07:32:21;;;;;;;11.15;5.47;;;;;;;;;;5065428;28;20016;-59
2022/04/22 07:34:48;;;;;;;13.15;4.75;;;;;;;;;;5066211;28;20039;-59
2022/04/22 07:37:14;;;;;;;10.40;5.38;;;;;;;;;;5064130;28;20031;-58
2022/04/22 07:39:41;;;;;;;11.85;4.55;;;;;;;;;;5073942;28;20383;-58
2022/04/22 07:42:20;;;;;;;7.78;4.55;;;;;;;;;;5064048;28;20028;-59
2022/04/22 07:47:33;;;;;;;11.50;5.18;;;;;;;;;;5059746;28;20036;-59
2022/04/22 07:50:00;;;;;;;9.82;4.90;;;;;;;;;;5057198;28;20835;-59
2022/04/22 07:52:26;;;;;;;9.52;5.35;;;;;;;;;;5043272;28;20496;-58
2022/04/22 07:54:52;;;;;;;10.52;4.75;;;;;;;;;;5065065;28;20028;-58
2022/04/22 07:57:19;;;;;;;7.43;4.35;;;;;;;;;;5047022;28;20080;-58
2022/04/22 07:59:45;;;;;;;10.00;5.03;;;;;;;;;;5074848;28;20040;-58
2022/04/22 08:02:11;;;;;;;10.38;4.38;;;;;;;;;;5057605;28;20021;-58
2022/04/22 08:04:37;;;;;;;9.70;4.78;;;;;;;;;;5062831;28;20035;-58
2022/04/22 08:07:05;;;;;;;12.00;5.32;;;;;;;;;;5065929;28;20495;-58
2022/04/22 08:09:31;;;;;;;8.35;4.75;;;;;;;;;;5068105;28;20484;-58
2022/04/22 08:11:57;;;;;;;8.10;4.40;;;;;;;;;;5053696;28;20036;-58
2022/04/22 08:14:24;;;;;;;9.75;4.75;;;;;;;;;;5057724;28;20499;-58
2022/04/22 08:16:50;;;;;;;7.82;4.68;;;;;;;;;;5086057;28;20107;-58
2022/04/22 08:19:16;;;;;;;11.95;5.18;;;;;;;;;;5067655;28;20068;-58
2022/04/22 08:21:43;;;;;;;12.73;5.30;;;;;;;;;;5068653;28;20039;-58
2022/04/22 08:24:10;;;;;;;9.30;5.03;;;;;;;;;;5065271;28;20063;-59
2022/04/22 08:26:36;;;;;;;10.40;5.40;;;;;;;;;;5072786;28;20035;-58
2022/04/22 08:29:03;;;;;;;12.18;5.93;;;;;;;;;;5070698;28;20039;-58
2022/04/22 08:31:29;;;;;;;8.88;5.43;;;;;;;;;;5061900;28;20035;-58
2022/04/22 08:33:58;;;;;;;12.13;6.25;;;;;;;;;;5076222;28;20021;-59
2022/04/22 08:36:24;;;;;;;9.55;5.60;;;;;;;;;;5063172;28;20024;-58
2022/04/22 08:38:50;;;;;;;12.13;5.60;;;;;;;;;;5069062;28;20388;-59
2022/04/22 08:41:17;;;;;;;11.52;5.88;;;;;;;;;;5073038;28;20084;-58
2022/04/22 08:43:44;;;;;;;12.48;6.47;;;;;;;;;;5072189;28;20410;-58
2022/04/22 08:51:40;;;;;;;13.82;6.75;;;;;;;;;;5068885;28;20144;-58
2022/04/22 08:54:09;;;;;;;11.95;6.20;;;;;;;;;;5072664;28;20027;-59
2022/04/22 08:56:36;;;;;;;11.88;6.88;;;;;;;;;;5072703;28;20029;-58
2022/04/22 08:59:03;;;;;;;14.85;7.50;;;;;;;;;;5074312;28;20028;-59
2022/04/22 09:01:29;;;;;;;10.70;6.75;;;;;;;;;;5068358;28;20040;-58
2022/04/22 09:03:55;;;;;;;12.50;7.22;;;;;;;;;;5073662;28;20083;-58
2022/04/22 09:06:23;;;;;;;13.73;7.28;;;;;;;;;;5067805;28;20146;-59
2022/04/22 09:08:50;;;;;;;10.20;6.18;;;;;;;;;;5066399;28;20150;-58
2022/04/22 09:11:16;;;;;;;11.57;6.90;;;;;;;;;;5059185;28;20029;-59
2022/04/22 09:13:42;;;;;;;13.85;7.15;;;;;;;;;;5066726;28;20035;-59
2022/04/22 09:16:09;;;;;;;16.55;7.10;;;;;;;;;;5059596;28;20036;-57
2022/04/22 09:18:39;;;;;;;14.90;7.35;;;;;;;;;;5065809;28;20487;-58
2022/04/22 09:21:07;;;;;;;12.25;7.13;;;;;;;;;;5065917;28;20029;-59
2022/04/22 09:23:36;;;;;;;16.02;7.18;;;;;;;;;;5069389;28;20031;-58
2022/04/22 09:26:03;;;;;;;10.85;6.65;;;;;;;;;;5064798;28;20512;-58
2022/04/22 09:28:30;;;;;;;14.55;7.43;;;;;;;;;;5069150;28;20413;-58
2022/04/22 09:30:57;;;;;;;15.02;6.63;;;;;;;;;;5062661;28;20039;-58
2022/04/22 09:33:23;;;;;;;13.43;7.93;;;;;;;;;;5062424;28;20033;-58
2022/04/22 09:44:23;;;;;;;11.48;7.13;;;;;;;;;;5055667;28;20044;-59
2022/04/22 09:46:49;;;;;;;13.63;7.50;;;;;;;;;;5063827;28;20238;-58
2022/04/22 09:49:36;;;;;;;16.13;8.05;;;;;;;;;;5072439;28;20020;-57
2022/04/22 09:52:05;;;;;;;15.00;7.47;;;;;;;;;;5065486;28;20219;-58
2022/04/22 09:54:31;;;;;;;12.77;7.35;;;;;;;;;;5072858;28;20135;-57
2022/04/22 09:56:58;;;;;;;12.32;7.65;;;;;;;;;;5065369;28;20107;-58
2022/04/22 09:59:25;;;;;;;11.00;7.50;;;;;;;;;;5062608;28;20052;-57
2022/04/22 10:01:51;;;;;;;12.93;7.10;;;;;;;;;;5052486;28;20025;-59
2022/04/22 10:04:17;;;;;;;13.30;8.15;;;;;;;;;;5056730;28;20083;-59
2022/04/22 10:06:45;;;;;;;16.15;8.35;;;;;;;;;;5055354;28;20380;-58
2022/04/22 10:09:14;;;;;;;12.93;7.95;;;;;;;;;;5075001;28;20060;-58
2022/04/22 10:11:40;;;;;;;17.27;8.65;;;;;;;;;;5067565;28;20376;-58
2022/04/22 10:14:09;;;;;;;13.15;7.65;;;;;;;;;;5065152;28;20020;-59
2022/04/22 10:16:35;;;;;;;15.73;7.80;;;;;;;;;;5064504;28;20157;-58
2022/04/22 10:19:02;;;;;;;13.48;8.07;;;;;;;;;;5057811;28;20052;-58
2022/04/22 10:21:28;;;;;;;16.50;7.93;;;;;;;;;;5058823;28;20124;-59
2022/04/22 10:23:56;;;;;;;15.27;9.35;;;;;;;;;;5056697;28;20562;-58
2022/04/22 10:26:22;;;;;;;14.93;8.40;;;;;;;;;;5060928;28;20032;-59
2022/04/22 10:28:48;;;;;;;14.55;7.82;;;;;;;;;;5061246;28;20025;-59
2022/04/22 10:31:14;;;;;;;17.00;8.88;;;;;;;;;;5058630;28;20021;-59
2022/04/22 10:33:40;;;;;;;17.27;8.63;;;;;;;;;;5038440;28;20024;-58
2022/04/22 10:36:07;;;;;;;18.58;9.55;;;;;;;;;;5037519;28;20036;-58
2022/04/22 10:38:34;;;;;;;16.48;8.55;;;;;;;;;;5046053;28;20067;-58
2022/04/22 10:41:01;;;;;;;12.15;7.38;;;;;;;;;;5038426;28;20364;-58
2022/04/22 10:43:27;;;;;;;15.30;8.88;;;;;;;;;;5068930;28;20487;-58
2022/04/22 10:48:40;;;;;;;14.85;8.60;;;;;;;;;;5067914;28;20119;-58
2022/04/22 10:51:09;;;;;;;13.18;9.10;;;;;;;;;;5069383;28;20088;-58
2022/04/22 10:53:49;;;;;;;14.52;9.18;;;;;;;;;;5071380;28;20032;-59
2022/04/22 10:56:24;;;;;;;13.05;9.13;;;;;;;;;;5078013;28;20030;-58
2022/04/22 10:59:10;;;;;;;15.30;9.43;;;;;;;;;;5064920;28;20033;-59
2022/04/22 11:01:40;;;;;;;17.77;8.70;;;;;;;;;;5065540;28;20236;-59
2022/04/22 11:04:17;;;;;;;20.10;9.27;;;;;;;;;;5057575;28;20032;-59
2022/04/22 11:06:43;;;;;;;17.00;9.35;;;;;;;;;;5066760;28;20116;-58
2022/04/22 11:09:09;;;;;;;15.48;9.48;;;;;;;;;;5075931;28;20047;-59
2022/04/22 11:11:41;;;;;;;14.85;9.18;;;;;;;;;;5055493;28;20475;-59
2022/04/22 11:14:18;;;;;;;19.58;10.10;;;;;;;;;;5050571;28;20068;-57
2022/04/22 11:16:44;;;;;;;21.70;10.40;;;;;;;;;;5060416;28;20040;-58
2022/04/22 11:19:19;;;;;;;15.70;9.65;;;;;;;;;;5062554;28;20039;-58
2022/04/22 11:21:47;;;;;;;22.50;10.52;;;;;;;;;;5069015;28;20052;-58
2022/04/22 11:24:26;;;;;;;16.88;10.50;;;;;;;;;;5068245;28;20029;-58
2022/04/22 11:26:53;;;;;;;18.92;10.00;;;;;;;;;;5064709;28;20381;-57
2022/04/22 11:29:19;;;;;;;17.90;10.73;;;;;;;;;;5077387;28;20484;-58
2022/04/22 11:32:05;;;;;;;16.00;10.90;;;;;;;;;;5077760;28;20032;-58
2022/04/22 11:34:54;;;;;;;18.58;11.63;;;;;;;;;;5069286;28;20059;-59
2022/04/22 11:37:21;;;;;;;20.90;11.27;;;;;;;;;;5073990;28;20450;-59
2022/04/22 11:39:48;;;;;;;18.10;12.05;;;;;;;;;;5082770;28;20024;-59
2022/04/22 11:42:15;;;;;;;18.17;10.93;;;;;;;;;;5079831;28;20036;-58
2022/04/22 11:44:41;;;;;;;19.88;11.20;;;;;;;;;;5070091;28;20367;-58
2022/04/22 11:47:08;;;;;;;18.40;12.00;;;;;;;;;;5066854;28;20387;-58
2022/04/22 11:49:35;;;;;;;17.27;11.55;;;;;;;;;;5079532;28;20020;-58
2022/04/22 11:52:01;;;;;;;19.55;12.77;;;;;;;;;;5060690;28;20410;-58
2022/04/22 11:54:27;;;;;;;22.38;13.93;;;;;;;;;;5067395;28;20029;-58
2022/04/22 11:56:54;;;;;;;22.55;14.65;;;;;;;;;;5053561;28;20029;-59
2022/04/22 11:59:23;;;;;;;22.77;14.18;;;;;;;;;;5056816;28;20025;-58
2022/04/22 12:10:05;;;;;;;21.00;14.25;;;;;;;;;;5078401;28;20082;-57
2022/04/22 12:12:31;;;;;;;22.30;15.00;;;;;;;;;;5060278;28;20024;-57
2022/04/22 12:15:02;;;;;;;22.83;14.07;;;;;;;;;;5082839;28;20032;-58
2022/04/22 12:17:28;;;;;;;24.95;14.13;;;;;;;;;;5062619;28;20025;-59
2022/04/22 12:19:54;;;;;;;25.27;15.55;;;;;;;;;;5093654;28;20024;-59
2022/04/22 12:22:21;;;;;;;23.58;14.27;;;;;;;;;;5086889;28;20383;-58
2022/04/22 12:25:06;;;;;;;24.77;15.60;;;;;;;;;;5083315;28;20028;-58
2022/04/22 12:27:33;;;;;;;23.17;15.25;;;;;;;;;;5069880;28;20488;-58
2022/04/22 12:30:00;;;;;;;23.33;14.98;;;;;;;;;;5082224;28;20028;-58
2022/04/22 12:32:26;;;;;;;23.60;15.45;;;;;;;;;;5070785;28;20041;-57
2022/04/22 12:34:52;;;;;;;24.42;15.32;;;;;;;;;;5075677;28;20039;-58
2022/04/22 12:37:18;;;;;;;22.55;13.85;;;;;;;;;;5070371;28;20028;-58
2022/04/22 12:39:46;;;;;;;24.52;14.73;;;;;;;;;;5071398;28;20032;-58
2022/04/22 12:42:18;;;;;;;24.67;15.52;;;;;;;;;;5084488;28;20032;-59
2022/04/22 12:53:00;;;;;;;24.33;14.43;;;;;;;;;;5033791;28;20024;-58
2022/04/22 12:55:26;;;;;;;24.77;15.73;;;;;;;;;;5055534;28;20036;-59
2022/04/22 12:57:58;;;;;;;24.08;14.40;;;;;;;;;;5074743;28;20051;-58
2022/04/22 13:00:25;;;;;;;26.70;15.43;;;;;;;;;;5067273;28;20043;-58
2022/04/22 13:02:51;;;;;;;24.50;14.23;;;;;;;;;;5073564;28;20271;-59
2022/04/22 13:05:22;;;;;;;26.00;15.32;;;;;;;;;;5059029;28;20116;-57
2022/04/22 13:07:51;;;;;;;23.90;14.95;;;;;;;;;;5076302;28;20020;-57
2022/04/22 13:10:19;;;;;;;25.13;15.00;;;;;;;;;;5075500;28;20414;-58
2022/04/22 13:12:45;;;;;;;26.77;14.35;;;;;;;;;;5076087;28;20017;-58
2022/04/22 13:15:19;;;;;;;24.50;14.52;;;;;;;;;;5069774;28;20028;-59
2022/04/22 13:17:49;;;;;;;23.40;14.10;;;;;;;;;;5080604;28;20442;-58
2022/04/22 13:20:17;;;;;;;21.85;12.65;;;;;;;;;;5088947;28;20032;-58
2022/04/22 13:22:43;;;;;;;19.48;11.70;;;;;;;;;;5068844;28;20601;-58
2022/04/22 13:25:12;;;;;;;18.40;10.68;;;;;;;;;;5070191;28;20025;-58
2022/04/22 13:27:39;;;;;;;19.35;10.98;;;;;;;;;;5072893;28;20078;-59
2022/04/22 13:30:06;;;;;;;15.05;9.40;;;;;;;;;;5075031;28;20515;-58
2022/04/22 13:32:32;;;;;;;17.45;9.93;;;;;;;;;;5087840;28;20024;-58
2022/04/22 13:34:58;;;;;;;15.98;10.30;;;;;;;;;;5069070;28;20102;-59
2022/04/22 13:37:24;;;;;;;17.10;10.02;;;;;;;;;;5092466;28;20062;-58
2022/04/22 13:39:50;;;;;;;14.75;8.85;;;;;;;;;;5079822;28;20103;-57
2022/04/22 13:42:18;;;;;;;15.55;8.90;;;;;;;;;;5071357;28;20899;-58
2022/04/22 13:52:57;;;;;;;18.38;10.38;;;;;;;;;;5081306;28;20036;-59
2022/04/22 13:55:23;;;;;;;17.08;9.68;;;;;;;;;;5087390;28;20028;-59
2022/04/22 13:57:50;;;;;;;16.30;9.55;;;;;;;;;;5087745;28;20029;-58
2022/04/22 14:00:16;;;;;;;15.15;10.02;;;;;;;;;;5087506;28;20521;-58
2022/04/22 14:02:42;;;;;;;16.40;8.98;;;;;;;;;;5085262;28;20024;-58
2022/04/22 14:05:08;;;;;;;18.70;11.07;;;;;;;;;;5083140;28;20025;-59
2022/04/22 14:07:34;;;;;;;16.60;10.55;;;;;;;;;;5080690;28;20507;-59
2022/04/22 14:10:00;;;;;;;14.63;9.70;;;;;;;;;;5078981;28;20024;-59
2022/04/22 14:12:26;;;;;;;16.48;10.13;;;;;;;;;;5058683;28;21601;-59
2022/04/22 14:14:52;;;;;;;20.13;11.05;;;;;;;;;;5057456;28;20028;-59
2022/04/22 14:17:19;;;;;;;15.88;9.43;;;;;;;;;;5057882;28;20032;-58
2022/04/22 14:19:45;;;;;;;15.85;9.73;;;;;;;;;;5056864;28;20108;-59
2022/04/22 14:22:11;;;;;;;19.33;9.57;;;;;;;;;;5057225;28;20492;-58
2022/04/22 14:24:39;;;;;;;17.60;9.65;;;;;;;;;;5065352;28;20108;-59
2022/04/22 14:27:07;;;;;;;14.18;8.70;;;;;;;;;;5064749;28;20020;-59
2022/04/22 14:29:33;;;;;;;14.95;9.45;;;;;;;;;;5059498;28;20025;-58
2022/04/22 14:31:59;;;;;;;14.75;8.95;;;;;;;;;;5038752;28;20044;-58
2022/04/22 14:34:25;;;;;;;13.27;8.18;;;;;;;;;;5060740;28;20087;-58
2022/04/22 14:36:52;;;;;;;14.88;7.97;;;;;;;;;;5070291;28;20025;-59
2022/04/22 14:39:18;;;;;;;11.38;7.22;;;;;;;;;;5050543;28;20484;-58
2022/04/22 14:41:45;;;;;;;11.70;7.30;;;;;;;;;;5076501;28;20448;-59
2022/04/22 14:44:14;;;;;;;9.70;6.30;;;;;;;;;;5069706;28;22195;-58
2022/04/22 14:46:40;;;;;;;12.93;6.07;;;;;;;;;;5072342;28;20539;-59
2022/04/22 14:49:07;;;;;;;9.65;5.97;;;;;;;;;;5067649;28;20025;-59
2022/04/22 14:51:33;;;;;;;11.90;5.88;;;;;;;;;;5075307;28;20052;-58
2022/04/22 14:53:59;;;;;;;9.23;6.18;;;;;;;;;;5077639;28;20028;-58
2022/04/22 14:56:28;;;;;;;9.88;6.03;;;;;;;;;;5061872;28;20021;-59
2022/04/22 14:58:54;;;;;;;11.35;6.75;;;;;;;;;;5061591;28;21651;-59
2022/04/22 15:01:20;;;;;;;9.68;6.05;;;;;;;;;;5073350;28;20028;-57
2022/04/22 15:03:46;;;;;;;8.90;5.95;;;;;;;;;;5082364;28;20047;-59
2022/04/22 15:06:12;;;;;;;8.63;5.70;;;;;;;;;;5068899;28;20020;-58
2022/04/22 15:08:38;;;;;;;10.60;6.10;;;;;;;;;;5064470;28;20029;-58
2022/04/22 15:11:04;;;;;;;7.88;5.68;;;;;;;;;;5067828;28;20033;-58
2022/04/22 15:13:33;;;;;;;10.52;6.88;;;;;;;;;;5068145;28;20679;-58
2022/04/22 15:15:59;;;;;;;10.70;6.40;;;;;;;;;;5062032;28;20033;-58
2022/04/22 15:24:09;;;;;;;10.27;7.03;;;;;;;;;;5080387;28;20123;-58
2022/04/22 15:26:39;;;;;;;10.25;6.38;;;;;;;;;;5067318;28;20047;-58
2022/04/22 15:29:06;;;;;;;10.38;6.65;;;;;;;;;;5072580;28;20082;-58
2022/04/22 15:31:32;;;;;;;9.68;6.13;;;;;;;;;;5072258;28;20028;-58
2022/04/22 15:33:58;;;;;;;11.05;6.30;;;;;;;;;;5062383;28;20023;-57
2022/04/22 15:36:24;;;;;;;10.00;6.22;;;;;;;;;;5071077;28;20069;-58
2022/04/22 15:38:51;;;;;;;11.10;5.75;;;;;;;;;;5075816;28;20121;-58
2022/04/22 15:41:21;;;;;;;9.55;5.35;;;;;;;;;;5066016;28;20028;-59
2022/04/22 15:43:50;;;;;;;9.85;5.00;;;;;;;;;;5068896;28;20039;-58
2022/04/22 15:46:16;;;;;;;13.27;5.85;;;;;;;;;;5067090;28;20391;-59
2022/04/22 15:48:42;;;;;;;8.25;5.10;;;;;;;;;;5066582;28;20020;-58
2022/04/22 15:51:09;;;;;;;8.65;5.35;;;;;;;;;;5045144;28;20518;-59
2022/04/22 15:53:35;;;;;;;7.25;4.88;;;;;;;;;;5060111;28;20020;-59
2022/04/22 15:56:01;;;;;;;9.40;5.35;;;;;;;;;;5079080;28;21412;-59
2022/04/22 15:58:28;;;;;;;9.13;4.90;;;;;;;;;;5071810;28;20111;-59
2022/04/22 16:00:54;;;;;;;7.35;5.03;;;;;;;;;;5064713;28;20593;-59